createdAt,value
2022-08-21T00:00:55.501Z,19.49
2022-08-21T00:03:58.009Z,19.49
2022-08-21T00:07:00.308Z,19.54
2022-08-21T00:10:03.149Z,19.45
2022-08-21T00:13:07.098Z,19.44
2022-08-21T00:16:09.676Z,19.40
2022-08-21T00:19:12.067Z,19.39
2022-08-21T00:22:14.938Z,19.36
2022-08-21T00:25:19.843Z,19.31
2022-08-21T00:28:26.866Z,19.22
2022-08-21T00:31:29.068Z,19.20
2022-08-21T00:34:31.517Z,19.15
2022-08-21T00:37:35.197Z,19.09
2022-08-21T00:40:46.444Z,19.06
2022-08-21T00:43:48.560Z,19.02
2022-08-21T00:46:50.931Z,19.02
2022-08-21T00:49:53.058Z,18.98
2022-08-21T00:52:56.398Z,18.92
2022-08-21T00:56:00.424Z,18.91
2022-08-21T00:59:04.170Z,18.89
2022-08-21T01:02:08.565Z,18.89
2022-08-21T01:05:12.065Z,18.90
2022-08-21T01:08:16.429Z,18.91
2022-08-21T01:11:19.195Z,18.90
2022-08-21T01:14:21.527Z,18.91
2022-08-21T01:17:24.217Z,18.83
2022-08-21T01:20:32.863Z,18.79
2022-08-21T01:23:38.957Z,18.85
2022-08-21T01:26:42.361Z,18.83
2022-08-21T01:30:02.500Z,18.75
2022-08-21T01:33:08.942Z,18.80
2022-08-21T01:36:11.389Z,18.81
2022-08-21T01:39:14.548Z,18.82
2022-08-21T01:42:17.130Z,18.87
2022-08-21T01:45:19.980Z,18.83
2022-08-21T01:48:22.413Z,18.90
2022-08-21T01:51:24.533Z,18.90
2022-08-21T01:54:27.189Z,19.02
2022-08-21T01:57:29.419Z,19.03
2022-08-21T02:00:31.841Z,18.98
2022-08-21T02:03:36.217Z,18.99
2022-08-21T02:06:39.638Z,19.09
2022-08-21T02:09:43.871Z,18.93
2022-08-21T02:12:46.767Z,18.87
2022-08-21T02:15:49.027Z,18.84
2022-08-21T02:18:51.657Z,18.91
2022-08-21T02:21:53.769Z,18.93
2022-08-21T02:24:56.181Z,18.89
2022-08-21T02:27:59.873Z,18.87
2022-08-21T02:31:03.113Z,18.86
2022-08-21T02:34:05.494Z,18.92
2022-08-21T02:37:07.935Z,18.83
2022-08-21T02:40:12.438Z,18.79
2022-08-21T02:43:16.355Z,18.77
2022-08-21T02:46:21.522Z,18.79
2022-08-21T02:49:23.937Z,18.79
2022-08-21T02:52:26.067Z,18.78
2022-08-21T02:55:31.955Z,18.69
2022-08-21T02:58:38.484Z,18.66
2022-08-21T03:01:41.049Z,18.70
2022-08-21T03:04:46.572Z,18.78
2022-08-21T03:07:49.687Z,18.85
2022-08-21T03:10:53.684Z,18.91
2022-08-21T03:13:56.154Z,18.85
2022-08-21T03:16:58.258Z,18.81
2022-08-21T03:20:01.180Z,18.79
2022-08-21T03:23:12.415Z,18.88
2022-08-21T03:26:15.832Z,18.88
2022-08-21T03:29:18.339Z,18.88
2022-08-21T03:32:21.660Z,18.89
2022-08-21T03:35:23.885Z,18.86
2022-08-21T03:38:29.798Z,18.87
2022-08-21T03:41:32.057Z,18.81
2022-08-21T03:44:35.528Z,18.78
2022-08-21T03:47:37.689Z,18.73
2022-08-21T03:50:42.479Z,18.68
2022-08-21T03:53:45.853Z,18.68
2022-08-21T03:56:48.490Z,18.75
2022-08-21T03:59:50.650Z,18.68
2022-08-21T04:02:53.311Z,18.77
2022-08-21T04:05:55.778Z,18.75
2022-08-21T04:08:57.934Z,18.90
2022-08-21T04:12:01.361Z,18.88
2022-08-21T04:15:04.194Z,18.81
2022-08-21T04:18:06.753Z,18.87
2022-08-21T04:21:11.435Z,18.78
2022-08-21T04:24:15.774Z,18.88
2022-08-21T04:27:17.892Z,18.90
2022-08-21T04:30:28.105Z,18.85
2022-08-21T04:33:31.033Z,18.89
2022-08-21T04:36:34.199Z,18.89
2022-08-21T04:39:36.360Z,18.97
2022-08-21T04:42:50.588Z,18.97
2022-08-21T04:45:53.333Z,19.02
2022-08-21T04:48:56.011Z,19.01
2022-08-21T04:51:58.234Z,19.00
2022-08-21T04:55:02.026Z,19.04
2022-08-21T04:58:05.226Z,19.08
2022-08-21T05:01:12.510Z,19.10
2022-08-21T05:04:19.277Z,19.09
2022-08-21T05:07:41.946Z,19.18
2022-08-21T05:10:45.489Z,19.23
2022-08-21T05:13:47.924Z,19.35
2022-08-21T05:16:57.236Z,19.38
2022-08-21T05:19:59.693Z,19.32
2022-08-21T05:23:08.539Z,19.37
2022-08-21T05:26:18.431Z,19.42
2022-08-21T05:29:21.632Z,19.46
2022-08-21T05:32:25.482Z,19.50
2022-08-21T05:35:29.060Z,19.56
2022-08-21T05:38:31.662Z,19.67
2022-08-21T05:41:34.209Z,19.62
2022-08-21T05:44:36.891Z,19.70
2022-08-21T05:47:39.018Z,19.72
2022-08-21T05:50:42.439Z,19.59
2022-08-21T05:53:44.863Z,19.53
2022-08-21T05:56:47.260Z,19.63
2022-08-21T05:59:50.151Z,19.83
2022-08-21T06:02:52.564Z,19.96
2022-08-21T06:05:56.579Z,20.00
2022-08-21T06:08:58.721Z,19.87
2022-08-21T06:12:19.482Z,19.87
2022-08-21T06:15:21.748Z,20.02
2022-08-21T06:18:24.112Z,20.11
2022-08-21T06:21:26.224Z,20.07
2022-08-21T06:24:29.191Z,20.01
2022-08-21T06:27:31.320Z,19.96
2022-08-21T06:30:34.790Z,20.00
2022-08-21T06:33:36.911Z,20.00
2022-08-21T06:36:39.543Z,20.29
2022-08-21T06:39:45.197Z,20.62
2022-08-21T06:42:48.078Z,20.81
2022-08-21T06:45:51.317Z,21.19
2022-08-21T06:48:53.838Z,21.23
2022-08-21T06:51:55.968Z,21.39
2022-08-21T06:54:58.336Z,21.53
2022-08-21T06:58:01.165Z,21.10
2022-08-21T07:01:04.366Z,21.15
2022-08-21T07:04:06.563Z,21.04
2022-08-21T07:07:08.951Z,20.75
2022-08-21T07:10:21.621Z,21.06
2022-08-21T07:13:25.052Z,21.29
2022-08-21T07:16:27.362Z,21.61
2022-08-21T07:19:29.775Z,21.28
2022-08-21T07:22:32.258Z,21.16
2022-08-21T07:25:34.800Z,21.40
2022-08-21T07:28:37.341Z,21.59
2022-08-21T07:31:39.750Z,21.70
2022-08-21T07:34:42.882Z,22.13
2022-08-21T07:37:45.375Z,22.46
2022-08-21T07:40:49.987Z,22.32
2022-08-21T07:43:53.112Z,21.79
2022-08-21T07:46:55.278Z,21.97
2022-08-21T07:49:58.037Z,22.49
2022-08-21T07:53:00.269Z,22.45
2022-08-21T07:56:03.306Z,22.56
2022-08-21T07:59:05.555Z,23.11
2022-08-21T08:02:08.064Z,23.58
2022-08-21T08:05:12.229Z,23.07
2022-08-21T08:08:14.440Z,22.86
2022-08-21T08:11:16.868Z,23.49
2022-08-21T08:14:19.015Z,24.15
2022-08-21T08:17:24.215Z,24.55
2022-08-21T08:20:30.254Z,24.64
2022-08-21T08:23:33.608Z,24.86
2022-08-21T08:26:35.768Z,25.47
2022-08-21T08:29:38.314Z,25.91
2022-08-21T08:32:41.715Z,25.88
2022-08-21T08:35:47.180Z,25.47
2022-08-21T08:38:50.286Z,25.69
2022-08-21T08:42:33.935Z,26.56
2022-08-21T08:45:40.094Z,26.49
2022-08-21T08:48:53.354Z,26.93
2022-08-21T08:52:03.346Z,26.90
2022-08-21T08:55:18.044Z,27.22
2022-08-21T08:58:25.559Z,26.90
2022-08-21T09:01:28.622Z,26.27
2022-08-21T09:04:30.849Z,25.79
2022-08-21T09:07:40.108Z,25.52
2022-08-21T09:11:01.584Z,26.07
2022-08-21T09:14:23.098Z,26.38
2022-08-21T09:17:46.019Z,26.55
2022-08-21T09:20:58.992Z,26.83
2022-08-21T09:24:11.457Z,26.92
2022-08-21T09:27:16.671Z,27.01
2022-08-21T09:30:24.447Z,27.50
2022-08-21T09:33:26.838Z,27.28
2022-08-21T09:36:51.516Z,27.47
2022-08-21T09:39:53.991Z,27.39
2022-08-21T09:42:59.462Z,26.43
2022-08-21T09:46:21.080Z,27.00
2022-08-21T09:49:32.581Z,27.23
2022-08-21T09:52:35.369Z,27.90
2022-08-21T09:56:17.597Z,28.13
2022-08-21T09:59:36.906Z,28.45
2022-08-21T10:02:39.513Z,28.29
2022-08-21T10:05:52.952Z,27.83
2022-08-21T10:09:05.484Z,27.87
2022-08-21T10:12:21.146Z,27.33
2022-08-21T10:15:49.529Z,27.13
2022-08-21T10:19:01.403Z,27.54
2022-08-21T10:22:09.110Z,27.40
2022-08-21T10:25:24.269Z,28.19
2022-08-21T10:28:38.498Z,28.65
2022-08-21T10:31:59.096Z,29.44
2022-08-21T10:35:25.472Z,29.65
2022-08-21T10:39:11.833Z,29.96
2022-08-21T10:42:28.575Z,31.05
2022-08-21T10:46:22.379Z,32.20
2022-08-21T10:49:30.681Z,32.62
2022-08-21T10:53:00.792Z,31.35
2022-08-21T10:56:13.413Z,30.19
2022-08-21T10:59:36.593Z,29.31
2022-08-21T11:02:52.844Z,28.57
2022-08-21T11:06:02.068Z,28.05
2022-08-21T11:09:14.733Z,27.51
2022-08-21T11:12:44.329Z,27.30
2022-08-21T11:16:04.900Z,27.53
2022-08-21T11:19:16.282Z,27.32
2022-08-21T11:22:27.493Z,27.49
2022-08-21T11:25:38.068Z,27.39
2022-08-21T11:29:26.651Z,27.20
2022-08-21T11:32:59.492Z,26.50
2022-08-21T11:36:16.265Z,26.71
2022-08-21T11:39:25.653Z,26.89
2022-08-21T11:42:40.512Z,27.04
2022-08-21T11:45:52.387Z,26.22
2022-08-21T11:49:03.323Z,25.92
2022-08-21T11:52:11.834Z,25.78
2022-08-21T11:55:23.510Z,25.69
2022-08-21T11:58:40.390Z,25.66
2022-08-21T12:01:46.224Z,25.56
2022-08-21T12:04:54.347Z,25.52
2022-08-21T12:08:06.837Z,25.49
2022-08-21T12:11:15.342Z,25.34
2022-08-21T12:14:19.986Z,25.19
2022-08-21T12:17:35.217Z,25.30
2022-08-21T12:20:45.119Z,25.47
2022-08-21T12:24:05.196Z,25.57
2022-08-21T12:27:29.458Z,25.70
2022-08-21T12:30:39.662Z,26.06
2022-08-21T12:33:42.271Z,26.17
2022-08-21T12:36:57.609Z,26.28
2022-08-21T12:40:01.601Z,26.21
2022-08-21T12:43:06.021Z,26.12
2022-08-21T12:46:18.189Z,25.92
2022-08-21T12:49:29.159Z,25.74
2022-08-21T12:52:39.838Z,25.31
2022-08-21T12:55:44.147Z,25.11
2022-08-21T12:58:55.746Z,24.87
2022-08-21T13:02:04.160Z,24.60
2022-08-21T13:05:10.638Z,24.21
2022-08-21T13:08:14.656Z,23.71
2022-08-21T13:11:25.194Z,22.91
2022-08-21T13:14:45.239Z,22.22
2022-08-21T13:17:51.555Z,21.34
2022-08-21T13:21:09.256Z,20.91
2022-08-21T13:24:41.941Z,20.46
2022-08-21T13:27:57.231Z,20.35
2022-08-21T13:30:59.813Z,20.19
2022-08-21T13:34:02.275Z,20.28
2022-08-21T13:37:08.442Z,20.28
2022-08-21T13:40:17.279Z,20.37
2022-08-21T13:43:23.553Z,20.46
2022-08-21T13:46:29.901Z,20.48
2022-08-21T13:49:36.890Z,20.47
2022-08-21T13:52:50.099Z,20.47
2022-08-21T13:55:52.470Z,20.29
2022-08-21T13:58:56.994Z,20.21
2022-08-21T14:02:09.051Z,20.17
2022-08-21T14:05:33.162Z,20.11
2022-08-21T14:08:36.871Z,19.98
2022-08-21T14:11:40.726Z,20.05
2022-08-21T14:14:44.194Z,19.72
2022-08-21T14:17:46.895Z,19.67
2022-08-21T14:20:49.260Z,19.60
2022-08-21T14:24:13.814Z,19.52
2022-08-21T14:27:18.785Z,19.51
2022-08-21T14:30:29.438Z,19.55
2022-08-21T14:33:33.954Z,19.61
2022-08-21T14:36:36.373Z,19.72
2022-08-21T14:39:41.446Z,19.84
2022-08-21T14:42:47.435Z,19.88
2022-08-21T14:45:49.716Z,20.02
2022-08-21T14:48:52.195Z,19.98
2022-08-21T14:51:58.378Z,19.94
2022-08-21T14:55:01.234Z,19.88
2022-08-21T14:58:03.405Z,19.87
2022-08-21T15:01:10.077Z,19.95
2022-08-21T15:04:12.281Z,20.02
2022-08-21T15:07:14.753Z,20.06
2022-08-21T15:10:16.934Z,19.99
2022-08-21T15:13:20.470Z,20.00
2022-08-21T15:16:23.535Z,20.05
2022-08-21T15:19:26.319Z,19.96
2022-08-21T15:22:28.645Z,20.02
2022-08-21T15:25:31.666Z,20.05
2022-08-21T15:28:35.866Z,20.03
2022-08-21T15:31:52.881Z,20.02
2022-08-21T15:34:56.721Z,20.00
2022-08-21T15:37:59.113Z,19.98
2022-08-21T15:41:04.129Z,20.02
2022-08-21T15:44:06.728Z,19.88
2022-08-21T15:47:22.222Z,19.81
2022-08-21T15:50:26.962Z,19.77
2022-08-21T15:53:29.114Z,19.91
2022-08-21T15:56:37.686Z,19.86
2022-08-21T15:59:46.998Z,19.81
2022-08-21T16:02:54.038Z,19.78
2022-08-21T16:05:58.051Z,19.79
2022-08-21T16:09:00.858Z,19.80
2022-08-21T16:12:05.477Z,19.70
2022-08-21T16:15:10.911Z,19.64
2022-08-21T16:18:23.877Z,19.69
2022-08-21T16:21:25.995Z,19.56
2022-08-21T16:24:28.596Z,19.48
2022-08-21T16:27:30.790Z,19.45
2022-08-21T16:30:37.274Z,19.37
2022-08-21T16:33:42.961Z,19.27
2022-08-21T16:36:47.671Z,19.28
2022-08-21T16:39:49.884Z,19.25
2022-08-21T16:42:56.246Z,19.24
2022-08-21T16:45:59.740Z,19.16
2022-08-21T16:49:02.908Z,19.13
2022-08-21T16:52:05.500Z,19.11
2022-08-21T16:55:09.348Z,19.12
2022-08-21T16:58:22.396Z,19.12
2022-08-21T17:01:28.825Z,19.11
2022-08-21T17:04:31.118Z,19.10
2022-08-21T17:07:36.975Z,19.12
2022-08-21T17:10:45.094Z,19.08
2022-08-21T17:13:48.240Z,19.07
2022-08-21T17:16:54.171Z,19.06
2022-08-21T17:19:56.580Z,19.04
2022-08-21T17:22:58.942Z,19.01
2022-08-21T17:26:02.127Z,18.97
2022-08-21T17:29:09.739Z,18.95
2022-08-21T17:32:12.702Z,18.94
2022-08-21T17:35:14.860Z,18.95
2022-08-21T17:38:17.499Z,18.93
2022-08-21T17:41:20.385Z,18.95
2022-08-21T17:44:22.884Z,18.99
2022-08-21T17:47:25.593Z,18.98
2022-08-21T17:50:28.193Z,18.90
2022-08-21T17:53:30.394Z,18.91
2022-08-21T17:56:36.379Z,18.85
2022-08-21T17:59:38.955Z,18.86
2022-08-21T18:02:43.327Z,18.82
2022-08-21T18:05:48.437Z,18.86
2022-08-21T18:08:50.576Z,18.85
2022-08-21T18:11:53.287Z,18.85
2022-08-21T18:14:55.518Z,18.81
2022-08-21T18:17:58.159Z,18.81
2022-08-21T18:21:00.276Z,18.85
2022-08-21T18:24:02.851Z,18.83
2022-08-21T18:27:07.726Z,18.78
2022-08-21T18:30:10.771Z,18.81
2022-08-21T18:33:14.243Z,18.80
2022-08-21T18:36:16.649Z,18.76
2022-08-21T18:39:35.906Z,18.71
2022-08-21T18:42:55.304Z,18.75
2022-08-21T18:45:58.265Z,18.71
2022-08-21T18:49:00.874Z,18.70
2022-08-21T18:52:05.582Z,18.70
2022-08-21T18:55:13.221Z,18.73
2022-08-21T18:58:16.542Z,18.70
2022-08-21T19:01:19.053Z,18.74
2022-08-21T19:04:43.044Z,18.71
2022-08-21T19:07:44.021Z,18.62
2022-08-21T19:10:48.461Z,18.67
2022-08-21T19:13:53.504Z,18.73
2022-08-21T19:16:55.700Z,18.72
2022-08-21T19:20:07.369Z,18.69
2022-08-21T19:26:45.101Z,18.68
2022-08-21T19:29:47.286Z,18.70
2022-08-21T19:32:50.106Z,18.78
2022-08-21T19:35:53.781Z,18.73
2022-08-21T19:38:56.435Z,18.77
2022-08-21T19:41:59.904Z,18.74
2022-08-21T19:45:04.682Z,18.75
2022-08-21T19:48:07.313Z,18.68
2022-08-21T19:51:09.733Z,18.65
2022-08-21T19:54:19.034Z,18.64
2022-08-21T19:57:21.482Z,18.66
2022-08-21T20:00:24.103Z,18.64
2022-08-21T20:03:26.584Z,18.63
2022-08-21T20:06:28.866Z,18.69
2022-08-21T20:09:31.485Z,18.66
2022-08-21T20:12:34.881Z,18.67
2022-08-21T20:15:37.483Z,18.64
2022-08-21T20:18:40.519Z,18.64
2022-08-21T20:21:44.704Z,18.62
2022-08-21T20:24:46.983Z,18.65
2022-08-21T20:27:49.405Z,18.55
2022-08-21T20:30:51.933Z,18.60
2022-08-21T20:33:54.422Z,18.67
2022-08-21T20:36:56.768Z,18.65
2022-08-21T20:39:59.264Z,18.77
2022-08-21T20:43:02.561Z,18.78
2022-08-21T20:46:05.471Z,18.78
2022-08-21T20:49:14.390Z,18.73
2022-08-21T20:52:17.967Z,18.69
2022-08-21T20:55:29.055Z,18.79
2022-08-21T20:59:01.997Z,18.78
2022-08-21T21:02:16.372Z,18.76
2022-08-21T21:05:24.598Z,18.73
2022-08-21T21:08:34.551Z,18.64
2022-08-21T21:11:52.449Z,18.55
2022-08-21T21:14:58.562Z,18.48
2022-08-21T21:18:19.043Z,18.50
2022-08-21T21:21:44.047Z,18.36
2022-08-21T21:25:06.372Z,18.35
2022-08-21T21:28:19.421Z,18.27
2022-08-21T21:31:22.606Z,18.24
2022-08-21T21:34:26.784Z,18.18
2022-08-21T21:38:05.879Z,18.17
2022-08-21T21:41:17.294Z,18.13
2022-08-21T21:44:50.074Z,18.11
2022-08-21T21:47:57.584Z,18.10
2022-08-21T21:51:18.428Z,18.05
2022-08-21T21:54:39.331Z,18.05
2022-08-21T21:57:57.861Z,18.11
2022-08-21T22:01:12.563Z,18.05
2022-08-21T22:04:31.118Z,18.00
2022-08-21T22:07:37.578Z,18.00
2022-08-21T22:10:52.632Z,17.99
2022-08-21T22:14:08.801Z,17.96
2022-08-21T22:17:30.237Z,17.98
2022-08-21T22:20:40.449Z,18.07
2022-08-21T22:23:49.580Z,18.04
2022-08-21T22:27:01.811Z,18.04
2022-08-21T22:30:10.570Z,18.09
2022-08-21T22:33:20.146Z,18.12
2022-08-21T22:36:22.739Z,18.16
2022-08-21T22:39:38.580Z,18.19
2022-08-21T22:42:41.728Z,18.19
2022-08-21T22:49:46.782Z,18.17
2022-08-21T22:52:54.206Z,18.18
2022-08-21T22:56:00.339Z,18.19
2022-08-21T22:59:10.332Z,18.18
2022-08-21T23:02:32.620Z,18.17
2022-08-21T23:05:36.583Z,18.23
2022-08-21T23:08:39.111Z,18.20
2022-08-21T23:11:44.752Z,18.15
2022-08-21T23:14:55.004Z,18.20
2022-08-21T23:18:12.322Z,18.18
2022-08-21T23:21:27.955Z,18.14
2022-08-21T23:24:49.749Z,18.16
2022-08-21T23:28:04.984Z,18.16
2022-08-21T23:31:27.084Z,18.17
2022-08-21T23:38:18.003Z,18.23
2022-08-21T23:41:34.409Z,18.21
2022-08-21T23:45:10.808Z,18.20
2022-08-21T23:48:42.302Z,18.19
2022-08-21T23:52:00.116Z,18.16
2022-08-21T23:55:27.581Z,18.15
2022-08-21T23:58:45.076Z,18.14
